METAR AND TAF INFORMATION
METAR FOR EHAM
ADDS - METARS form results

(2315 UTC 22 May 2018)
Data provider http://aviationweather.gov/adds/metars/
 
METAR text: EHAM 222255Z 03007KT CAVOK 16/11 Q1016 NOSIG
Conditions at: EHAM (AMSTERDAM/SCHIPH, NL) observed 2255 UTC 22 May 2018
Temperature: 16.0°C (61°F)
Dewpoint: 11.0°C (52°F) [RH = 72%]
Pressure (altimeter): 30.00 inches Hg (1016.0 mb)
Winds: from the NNE (30 degrees) at 8 MPH (7 knots; 3.6 m/s)
Visibility: 6 or more miles (10+ km)
Ceiling: ceiling and visibility are OK
Clouds: unknown
Weather: no significant weather observed at this time

METAR text: EHAM 222225Z 03008KT CAVOK 17/10 Q1016 NOSIG
Conditions at: EHAM (AMSTERDAM/SCHIPH, NL) observed 2225 UTC 22 May 2018
Temperature: 17.0°C (63°F)
Dewpoint: 10.0°C (50°F) [RH = 63%]
Pressure (altimeter): 30.00 inches Hg (1016.0 mb)
Winds: from the NNE (30 degrees) at 9 MPH (8 knots; 4.2 m/s)
Visibility: 6 or more miles (10+ km)
Ceiling: ceiling and visibility are OK
Clouds: unknown
Weather: no significant weather observed at this time

Forecast for: EHAM (AMSTERDAM/SCHIPH, NL)
Text: TAF EHAM 221707Z 2218/2324 05010KT CAVOK
Forecast period: 1800 UTC 22 May 2018 to 0000 UTC 24 May 2018
Forecast type: FROM: standard forecast or significant change
Winds: from the NE (50 degrees) at 12 MPH (10 knots; 5.2 m/s)
Visibility: 6 or more miles (10+ km)
Clouds: not forecast
Weather: NSW  (no significant weather)
Forecast for: EHAM (AMSTERDAM/SCHIPH, NL)
Text: TAF EHAM 221707Z 2218/2324 05010KT CAVOK
Forecast period: 1800 UTC 22 May 2018 to 0000 UTC 24 May 2018
Forecast type: FROM: standard forecast or significant change
Winds: from the NE (50 degrees) at 12 MPH (10 knots; 5.2 m/s)
Visibility: 6 or more miles (10+ km)
Clouds: not forecast
Weather: NSW  (no significant weather)
Forecast for: EHAM (AMSTERDAM/SCHIPH, NL)
Text: TAF EHAM 221707Z 2218/2324 05010KT CAVOK
Forecast period: 1800 UTC 22 May 2018 to 0600 UTC 23 May 2018
Forecast type: BECOMING: Conditions expected to become as follows by 2000 UTC 22 May 2018
Winds: from the NNE (20 degrees) at 8 MPH (7 knots; 3.6 m/s)
Visibility: 6 or more miles (10+ km)
Weather: NSW  (no significant weather)
Forecast for: EHAM (AMSTERDAM/SCHIPH, NL)
Text: TAF EHAM 221707Z 2218/2324 05010KT CAVOK
Forecast period: 1800 UTC 22 May 2018 to 0600 UTC 23 May 2018
Forecast type: BECOMING: Conditions expected to become as follows by 2000 UTC 22 May 2018
Winds: from the NNE (20 degrees) at 8 MPH (7 knots; 3.6 m/s)
Visibility: 6 or more miles (10+ km)
Weather: NSW  (no significant weather)
Forecast for: EHAM (AMSTERDAM/SCHIPH, NL)
Text: TAF EHAM 221707Z 2218/2324 05010KT CAVOK
Forecast period: 0400 to 0900 UTC 23 May 2018
Forecast type: TEMPORARY: The following changes expected for less than half the time period
Visibility: 4 miles (6 km)
Clouds: scattered clouds at 6000 feet AGL
Weather: SHRA RA  (rain showers, rain)
Forecast for: EHAM (AMSTERDAM/SCHIPH, NL)
Text: TAF EHAM 221707Z 2218/2324 05010KT CAVOK
Forecast period: 0400 to 0900 UTC 23 May 2018
Forecast type: TEMPORARY: The following changes expected for less than half the time period
Visibility: 4 miles (6 km)
Clouds: scattered clouds at 6000 feet AGL
Weather: SHRA RA  (rain showers, rain)
Forecast for: EHAM (AMSTERDAM/SCHIPH, NL)
Text: TAF EHAM 221707Z 2218/2324 05010KT CAVOK
Forecast period: 0600 UTC 23 May 2018 to 0000 UTC 24 May 2018
Forecast type: BECOMING: Conditions expected to become as follows by 0900 UTC 23 May 2018
Winds: from the ENE (70 degrees) at 16 MPH (14 knots; 7.3 m/s)
Visibility: 6 or more miles (10+ km)
Weather: NSW  (no significant weather)
Forecast for: EHAM (AMSTERDAM/SCHIPH, NL)
Text: TAF EHAM 221707Z 2218/2324 05010KT CAVOK
Forecast period: 0600 UTC 23 May 2018 to 0000 UTC 24 May 2018
Forecast type: BECOMING: Conditions expected to become as follows by 0900 UTC 23 May 2018
Winds: from the ENE (70 degrees) at 16 MPH (14 knots; 7.3 m/s)
Visibility: 6 or more miles (10+ km)
Weather: NSW  (no significant weather)

 AIRPORT MAP

 RUNWAY INFORMATION
Runway 04 Runway length 6608 ft Runway width 148 ft
Runway elevation 0 ft Runway displaced threshold 0 ft Runway heading 41
Runway 22 Runway length 6608 ft Runway width 148 ft
Runway elevation 0 ft Runway displaced threshold 0 ft Runway heading 221
Runway 06 Runway length 11483 ft Runway width 148 ft
Runway elevation 0 ft Runway displaced threshold 820 ft Runway heading 58
Runway 24 Runway length 11483 ft Runway width 148 ft
Runway elevation 0 ft Runway displaced threshold 0 ft Runway heading 238
Runway 09 Runway length 11329 ft Runway width 148 ft
Runway elevation 0 ft Runway displaced threshold 294 ft Runway heading 87
Runway 27 Runway length 11329 ft Runway width 148 ft
Runway elevation 0 ft Runway displaced threshold 0 ft Runway heading 267
Runway 18C Runway length 10826 ft Runway width 148 ft
Runway elevation 0 ft Runway displaced threshold 0 ft Runway heading 183
Runway 36C Runway length 10826 ft Runway width 148 ft
Runway elevation 0 ft Runway displaced threshold 1476 ft Runway heading 3
Runway 18L Runway length 11155 ft Runway width 148 ft
Runway elevation 0 ft Runway displaced threshold 1887 ft Runway heading 183
Runway 36R Runway length 11155 ft Runway width 148 ft
Runway elevation 0 ft Runway displaced threshold 0 ft Runway heading 3
Runway 18R Runway length 12467 ft Runway width 198 ft
Runway elevation 0 ft Runway displaced threshold 886 ft Runway heading 183
Runway 36L Runway length 12467 ft Runway width 198 ft
Runway elevation 0 ft Runway displaced threshold 0 ft Runway heading 3

 AIRPORT FREQUENCIES
Type APP Name APP/DEP Frequency 119.05 MHZ
Type ARR Name ARR Frequency 118.4 MHZ
Type ATIS Name ATIS Frequency 108.4 MHZ
Type CLD Name CLNC DEL Frequency 121.975 MHZ
Type GND Name GND Frequency 121.7 MHZ
Type TWR Name TWR Frequency 119.225 MHZ

 AIRPORT NEAR NAVIGATION AIDS
Type VOR-DME Name Schiphol Frequency 108400 KHZ
Type VOR-DME Name Spijkerboor Frequency 113300 KHZ



Powered by Virtual Airlines Manager [v2.6.2]